sensor_id;sensor_type;location;lat;lon;timestamp;P1;durP1;ratioP1;P2;durP2;ratioP2
10144;SDS011;5113;41.822;23.564;2023-04-12T00:01:41;6.97;;;5.37;;
10144;SDS011;5113;41.822;23.564;2023-04-12T00:04:48;7.40;;;5.43;;
10144;SDS011;5113;41.822;23.564;2023-04-12T00:08:00;9.43;;;6.10;;
10144;SDS011;5113;41.822;23.564;2023-04-12T00:11:08;7.23;;;4.90;;
10144;SDS011;5113;41.822;23.564;2023-04-12T00:14:14;6.30;;;4.23;;
10144;SDS011;5113;41.822;23.564;2023-04-12T00:17:20;9.37;;;5.17;;
10144;SDS011;5113;41.822;23.564;2023-04-12T00:20:26;10.40;;;5.67;;
10144;SDS011;5113;41.822;23.564;2023-04-12T00:23:34;7.50;;;5.13;;
10144;SDS011;5113;41.822;23.564;2023-04-12T00:26:41;4.63;;;4.13;;
10144;SDS011;5113;41.822;23.564;2023-04-12T00:29:47;4.50;;;4.10;;
10144;SDS011;5113;41.822;23.564;2023-04-12T00:32:54;5.97;;;4.57;;
10144;SDS011;5113;41.822;23.564;2023-04-12T00:36:00;4.77;;;4.13;;
10144;SDS011;5113;41.822;23.564;2023-04-12T00:39:08;7.90;;;5.03;;
10144;SDS011;5113;41.822;23.564;2023-04-12T00:42:14;4.23;;;3.83;;
10144;SDS011;5113;41.822;23.564;2023-04-12T00:45:21;6.97;;;4.70;;
10144;SDS011;5113;41.822;23.564;2023-04-12T00:48:27;6.20;;;5.10;;
10144;SDS011;5113;41.822;23.564;2023-04-12T00:51:34;7.67;;;4.97;;
10144;SDS011;5113;41.822;23.564;2023-04-12T00:54:42;5.87;;;5.03;;
10144;SDS011;5113;41.822;23.564;2023-04-12T00:57:49;4.50;;;4.10;;
10144;SDS011;5113;41.822;23.564;2023-04-12T01:00:56;4.70;;;4.30;;
10144;SDS011;5113;41.822;23.564;2023-04-12T01:04:02;6.03;;;4.63;;
10144;SDS011;5113;41.822;23.564;2023-04-12T01:07:09;5.53;;;4.73;;
10144;SDS011;5113;41.822;23.564;2023-04-12T01:10:28;5.43;;;4.40;;
10144;SDS011;5113;41.822;23.564;2023-04-12T01:13:43;6.27;;;3.63;;
10144;SDS011;5113;41.822;23.564;2023-04-12T01:16:56;7.10;;;4.30;;
10144;SDS011;5113;41.822;23.564;2023-04-12T01:20:10;4.43;;;3.40;;
10144;SDS011;5113;41.822;23.564;2023-04-12T01:23:28;4.13;;;3.60;;
10144;SDS011;5113;41.822;23.564;2023-04-12T01:26:49;5.00;;;4.23;;
10144;SDS011;5113;41.822;23.564;2023-04-12T01:29:58;5.20;;;4.47;;
10144;SDS011;5113;41.822;23.564;2023-04-12T01:33:09;7.43;;;3.90;;
10144;SDS011;5113;41.822;23.564;2023-04-12T01:36:17;5.13;;;3.83;;
10144;SDS011;5113;41.822;23.564;2023-04-12T01:39:25;4.83;;;3.53;;
10144;SDS011;5113;41.822;23.564;2023-04-12T01:42:32;3.97;;;3.13;;
10144;SDS011;5113;41.822;23.564;2023-04-12T01:45:40;4.67;;;3.73;;
10144;SDS011;5113;41.822;23.564;2023-04-12T01:48:47;6.07;;;4.27;;
10144;SDS011;5113;41.822;23.564;2023-04-12T01:52:01;5.67;;;3.90;;
10144;SDS011;5113;41.822;23.564;2023-04-12T01:55:13;5.90;;;5.00;;
10144;SDS011;5113;41.822;23.564;2023-04-12T01:58:21;8.03;;;6.20;;
10144;SDS011;5113;41.822;23.564;2023-04-12T02:01:31;9.47;;;6.07;;
10144;SDS011;5113;41.822;23.564;2023-04-12T02:04:38;7.80;;;5.47;;
10144;SDS011;5113;41.822;23.564;2023-04-12T02:07:46;4.23;;;3.83;;
10144;SDS011;5113;41.822;23.564;2023-04-12T02:10:53;7.40;;;5.40;;
10144;SDS011;5113;41.822;23.564;2023-04-12T02:13:59;5.53;;;4.77;;
10144;SDS011;5113;41.822;23.564;2023-04-12T02:17:06;9.43;;;5.57;;
10144;SDS011;5113;41.822;23.564;2023-04-12T02:20:13;7.57;;;5.50;;
10144;SDS011;5113;41.822;23.564;2023-04-12T02:23:21;8.67;;;5.43;;
10144;SDS011;5113;41.822;23.564;2023-04-12T02:26:27;8.73;;;6.17;;
10144;SDS011;5113;41.822;23.564;2023-04-12T02:29:33;8.53;;;6.17;;
10144;SDS011;5113;41.822;23.564;2023-04-12T02:32:41;5.00;;;4.40;;
10144;SDS011;5113;41.822;23.564;2023-04-12T02:35:50;8.37;;;5.53;;
10144;SDS011;5113;41.822;23.564;2023-04-12T02:38:56;13.80;;;7.43;;
10144;SDS011;5113;41.822;23.564;2023-04-12T02:42:03;21.60;;;11.70;;
10144;SDS011;5113;41.822;23.564;2023-04-12T02:45:09;11.40;;;8.23;;
10144;SDS011;5113;41.822;23.564;2023-04-12T02:48:17;9.10;;;6.77;;
10144;SDS011;5113;41.822;23.564;2023-04-12T02:51:24;10.53;;;8.27;;
10144;SDS011;5113;41.822;23.564;2023-04-12T02:54:31;10.33;;;6.47;;
10144;SDS011;5113;41.822;23.564;2023-04-12T02:57:37;9.73;;;7.93;;
10144;SDS011;5113;41.822;23.564;2023-04-12T03:00:44;16.13;;;6.70;;
10144;SDS011;5113;41.822;23.564;2023-04-12T03:03:54;10.10;;;7.10;;
10144;SDS011;5113;41.822;23.564;2023-04-12T03:07:01;10.57;;;7.47;;
10144;SDS011;5113;41.822;23.564;2023-04-12T03:10:08;18.17;;;12.93;;
10144;SDS011;5113;41.822;23.564;2023-04-12T03:13:16;10.70;;;8.33;;
10144;SDS011;5113;41.822;23.564;2023-04-12T03:16:23;11.03;;;7.60;;
10144;SDS011;5113;41.822;23.564;2023-04-12T03:19:34;8.63;;;7.07;;
10144;SDS011;5113;41.822;23.564;2023-04-12T03:22:41;9.00;;;7.20;;
10144;SDS011;5113;41.822;23.564;2023-04-12T03:25:47;13.63;;;8.37;;
10144;SDS011;5113;41.822;23.564;2023-04-12T03:28:54;9.53;;;6.37;;
10144;SDS011;5113;41.822;23.564;2023-04-12T03:32:08;13.57;;;7.97;;
10144;SDS011;5113;41.822;23.564;2023-04-12T03:35:16;12.50;;;8.47;;
10144;SDS011;5113;41.822;23.564;2023-04-12T03:38:23;15.60;;;9.27;;
10144;SDS011;5113;41.822;23.564;2023-04-12T03:41:29;14.00;;;7.17;;
10144;SDS011;5113;41.822;23.564;2023-04-12T03:44:35;12.27;;;8.17;;
10144;SDS011;5113;41.822;23.564;2023-04-12T03:47:41;13.77;;;8.87;;
10144;SDS011;5113;41.822;23.564;2023-04-12T03:50:50;12.27;;;7.10;;
10144;SDS011;5113;41.822;23.564;2023-04-12T03:53:58;10.60;;;7.10;;
10144;SDS011;5113;41.822;23.564;2023-04-12T03:57:06;11.20;;;7.13;;
10144;SDS011;5113;41.822;23.564;2023-04-12T04:00:12;9.47;;;7.47;;
10144;SDS011;5113;41.822;23.564;2023-04-12T04:03:19;9.57;;;7.00;;
10144;SDS011;5113;41.822;23.564;2023-04-12T04:06:32;10.33;;;7.47;;
10144;SDS011;5113;41.822;23.564;2023-04-12T04:09:38;9.53;;;6.00;;
10144;SDS011;5113;41.822;23.564;2023-04-12T04:12:44;9.27;;;6.97;;
10144;SDS011;5113;41.822;23.564;2023-04-12T04:15:54;8.97;;;6.23;;
10144;SDS011;5113;41.822;23.564;2023-04-12T04:19:04;10.20;;;7.00;;
10144;SDS011;5113;41.822;23.564;2023-04-12T04:22:11;9.73;;;6.60;;
10144;SDS011;5113;41.822;23.564;2023-04-12T04:25:18;7.03;;;6.33;;
10144;SDS011;5113;41.822;23.564;2023-04-12T04:28:25;15.40;;;9.67;;
10144;SDS011;5113;41.822;23.564;2023-04-12T04:31:31;9.50;;;7.60;;
10144;SDS011;5113;41.822;23.564;2023-04-12T04:34:39;7.23;;;6.47;;
10144;SDS011;5113;41.822;23.564;2023-04-12T04:37:48;11.13;;;7.63;;
10144;SDS011;5113;41.822;23.564;2023-04-12T04:40:55;14.03;;;9.77;;
10144;SDS011;5113;41.822;23.564;2023-04-12T04:44:02;14.27;;;10.13;;
10144;SDS011;5113;41.822;23.564;2023-04-12T04:47:12;10.07;;;7.60;;
10144;SDS011;5113;41.822;23.564;2023-04-12T04:50:19;13.10;;;8.87;;
10144;SDS011;5113;41.822;23.564;2023-04-12T04:53:27;12.97;;;8.07;;
10144;SDS011;5113;41.822;23.564;2023-04-12T04:56:34;27.33;;;14.43;;
10144;SDS011;5113;41.822;23.564;2023-04-12T04:59:40;27.83;;;17.80;;
10144;SDS011;5113;41.822;23.564;2023-04-12T05:02:46;32.03;;;19.63;;
10144;SDS011;5113;41.822;23.564;2023-04-12T05:05:53;141.70;;;52.73;;
10144;SDS011;5113;41.822;23.564;2023-04-12T05:09:01;38.97;;;22.83;;
10144;SDS011;5113;41.822;23.564;2023-04-12T05:12:08;21.77;;;12.40;;
10144;SDS011;5113;41.822;23.564;2023-04-12T05:15:14;24.53;;;14.33;;
10144;SDS011;5113;41.822;23.564;2023-04-12T05:18:20;18.87;;;12.87;;
10144;SDS011;5113;41.822;23.564;2023-04-12T05:21:27;14.60;;;9.53;;
10144;SDS011;5113;41.822;23.564;2023-04-12T05:24:34;17.73;;;10.27;;
10144;SDS011;5113;41.822;23.564;2023-04-12T05:27:40;8.33;;;7.13;;
10144;SDS011;5113;41.822;23.564;2023-04-12T05:30:47;13.10;;;8.73;;
10144;SDS011;5113;41.822;23.564;2023-04-12T05:33:53;9.87;;;6.73;;
10144;SDS011;5113;41.822;23.564;2023-04-12T05:36:59;13.63;;;9.73;;
10144;SDS011;5113;41.822;23.564;2023-04-12T05:40:07;14.83;;;10.43;;
10144;SDS011;5113;41.822;23.564;2023-04-12T05:43:14;12.90;;;8.93;;
10144;SDS011;5113;41.822;23.564;2023-04-12T05:46:21;8.47;;;6.83;;
10144;SDS011;5113;41.822;23.564;2023-04-12T05:49:27;8.77;;;6.80;;
10144;SDS011;5113;41.822;23.564;2023-04-12T05:52:35;10.73;;;8.27;;
10144;SDS011;5113;41.822;23.564;2023-04-12T05:55:42;10.10;;;7.90;;
10144;SDS011;5113;41.822;23.564;2023-04-12T05:58:48;7.77;;;6.57;;
10144;SDS011;5113;41.822;23.564;2023-04-12T06:01:54;13.27;;;9.13;;
10144;SDS011;5113;41.822;23.564;2023-04-12T06:05:00;13.47;;;9.50;;
10144;SDS011;5113;41.822;23.564;2023-04-12T06:08:07;14.87;;;8.53;;
10144;SDS011;5113;41.822;23.564;2023-04-12T06:11:15;14.70;;;9.77;;
10144;SDS011;5113;41.822;23.564;2023-04-12T06:14:21;13.53;;;9.50;;
10144;SDS011;5113;41.822;23.564;2023-04-12T06:17:27;6.80;;;6.07;;
10144;SDS011;5113;41.822;23.564;2023-04-12T06:20:34;9.43;;;5.50;;
10144;SDS011;5113;41.822;23.564;2023-04-12T06:23:43;8.93;;;6.67;;
10144;SDS011;5113;41.822;23.564;2023-04-12T06:26:50;26.70;;;14.50;;
10144;SDS011;5113;41.822;23.564;2023-04-12T06:29:57;22.93;;;11.93;;
10144;SDS011;5113;41.822;23.564;2023-04-12T06:33:03;17.50;;;8.73;;
10144;SDS011;5113;41.822;23.564;2023-04-12T06:36:10;16.97;;;11.10;;
10144;SDS011;5113;41.822;23.564;2023-04-12T06:39:18;9.97;;;6.90;;
10144;SDS011;5113;41.822;23.564;2023-04-12T06:42:26;6.97;;;6.27;;
10144;SDS011;5113;41.822;23.564;2023-04-12T06:45:32;9.63;;;6.23;;
10144;SDS011;5113;41.822;23.564;2023-04-12T06:48:38;10.73;;;7.33;;
10144;SDS011;5113;41.822;23.564;2023-04-12T06:51:45;10.67;;;5.80;;
10144;SDS011;5113;41.822;23.564;2023-04-12T06:54:51;7.63;;;5.63;;
10144;SDS011;5113;41.822;23.564;2023-04-12T06:57:59;9.13;;;6.23;;
10144;SDS011;5113;41.822;23.564;2023-04-12T07:01:05;8.40;;;6.10;;
10144;SDS011;5113;41.822;23.564;2023-04-12T07:04:13;12.73;;;7.43;;
10144;SDS011;5113;41.822;23.564;2023-04-12T07:07:20;11.60;;;7.30;;
10144;SDS011;5113;41.822;23.564;2023-04-12T07:10:26;9.03;;;6.17;;
10144;SDS011;5113;41.822;23.564;2023-04-12T07:13:34;8.60;;;5.73;;
10144;SDS011;5113;41.822;23.564;2023-04-12T07:16:41;6.23;;;5.43;;
10144;SDS011;5113;41.822;23.564;2023-04-12T07:19:47;9.47;;;6.03;;
10144;SDS011;5113;41.822;23.564;2023-04-12T07:22:55;10.83;;;6.80;;
10144;SDS011;5113;41.822;23.564;2023-04-12T07:26:02;6.37;;;4.70;;
10144;SDS011;5113;41.822;23.564;2023-04-12T07:29:10;5.43;;;4.03;;
10144;SDS011;5113;41.822;23.564;2023-04-12T07:32:16;8.27;;;5.43;;
10144;SDS011;5113;41.822;23.564;2023-04-12T07:35:23;7.23;;;4.40;;
10144;SDS011;5113;41.822;23.564;2023-04-12T07:38:29;8.20;;;5.00;;
10144;SDS011;5113;41.822;23.564;2023-04-12T07:41:35;5.43;;;4.33;;
10144;SDS011;5113;41.822;23.564;2023-04-12T07:44:43;3.87;;;3.57;;
10144;SDS011;5113;41.822;23.564;2023-04-12T07:47:50;4.23;;;3.83;;
10144;SDS011;5113;41.822;23.564;2023-04-12T07:50:56;4.23;;;3.60;;
10144;SDS011;5113;41.822;23.564;2023-04-12T07:54:02;5.60;;;4.37;;
10144;SDS011;5113;41.822;23.564;2023-04-12T07:57:09;5.40;;;3.60;;
10144;SDS011;5113;41.822;23.564;2023-04-12T08:00:17;4.67;;;4.17;;
10144;SDS011;5113;41.822;23.564;2023-04-12T08:03:24;8.70;;;5.83;;
10144;SDS011;5113;41.822;23.564;2023-04-12T08:06:30;4.30;;;3.00;;
10144;SDS011;5113;41.822;23.564;2023-04-12T08:09:38;5.83;;;4.40;;
10144;SDS011;5113;41.822;23.564;2023-04-12T08:12:44;3.23;;;2.97;;
10144;SDS011;5113;41.822;23.564;2023-04-12T08:15:52;4.00;;;3.57;;
10144;SDS011;5113;41.822;23.564;2023-04-12T08:18:59;7.77;;;4.07;;
10144;SDS011;5113;41.822;23.564;2023-04-12T08:22:05;3.40;;;3.00;;
10144;SDS011;5113;41.822;23.564;2023-04-12T08:25:12;6.23;;;4.70;;
10144;SDS011;5113;41.822;23.564;2023-04-12T08:28:18;16.90;;;8.43;;
10144;SDS011;5113;41.822;23.564;2023-04-12T08:31:27;6.40;;;5.00;;
10144;SDS011;5113;41.822;23.564;2023-04-12T08:34:34;11.50;;;6.87;;
10144;SDS011;5113;41.822;23.564;2023-04-12T08:37:42;6.77;;;4.77;;
10144;SDS011;5113;41.822;23.564;2023-04-12T08:40:48;3.10;;;2.63;;
10144;SDS011;5113;41.822;23.564;2023-04-12T08:43:56;4.07;;;2.00;;
10144;SDS011;5113;41.822;23.564;2023-04-12T08:47:09;5.07;;;3.17;;
10144;SDS011;5113;41.822;23.564;2023-04-12T08:50:16;6.67;;;4.43;;
10144;SDS011;5113;41.822;23.564;2023-04-12T08:53:25;7.70;;;5.00;;
10144;SDS011;5113;41.822;23.564;2023-04-12T08:56:32;4.63;;;3.83;;
10144;SDS011;5113;41.822;23.564;2023-04-12T08:59:42;4.73;;;3.40;;
10144;SDS011;5113;41.822;23.564;2023-04-12T09:02:54;2.50;;;2.37;;
10144;SDS011;5113;41.822;23.564;2023-04-12T09:06:01;3.03;;;2.67;;
10144;SDS011;5113;41.822;23.564;2023-04-12T09:09:08;3.83;;;3.33;;
10144;SDS011;5113;41.822;23.564;2023-04-12T09:12:14;2.77;;;2.60;;
10144;SDS011;5113;41.822;23.564;2023-04-12T09:15:23;4.03;;;3.73;;
10144;SDS011;5113;41.822;23.564;2023-04-12T09:18:32;6.07;;;3.50;;
10144;SDS011;5113;41.822;23.564;2023-04-12T09:21:53;10.70;;;7.53;;
10144;SDS011;5113;41.822;23.564;2023-04-12T09:25:00;4.57;;;4.17;;
10144;SDS011;5113;41.822;23.564;2023-04-12T09:28:16;10.37;;;6.73;;
10144;SDS011;5113;41.822;23.564;2023-04-12T09:31:24;8.87;;;4.90;;
10144;SDS011;5113;41.822;23.564;2023-04-12T09:34:32;6.87;;;4.83;;
10144;SDS011;5113;41.822;23.564;2023-04-12T09:37:40;6.67;;;4.23;;
10144;SDS011;5113;41.822;23.564;2023-04-12T09:40:47;4.93;;;4.43;;
10144;SDS011;5113;41.822;23.564;2023-04-12T09:43:53;8.13;;;3.60;;
10144;SDS011;5113;41.822;23.564;2023-04-12T09:47:01;10.90;;;7.27;;
10144;SDS011;5113;41.822;23.564;2023-04-12T09:50:18;13.90;;;8.37;;
10144;SDS011;5113;41.822;23.564;2023-04-12T09:53:25;9.10;;;6.53;;
10144;SDS011;5113;41.822;23.564;2023-04-12T09:56:33;6.30;;;5.37;;
10144;SDS011;5113;41.822;23.564;2023-04-12T09:59:41;7.53;;;4.77;;
10144;SDS011;5113;41.822;23.564;2023-04-12T10:02:49;8.67;;;5.77;;
10144;SDS011;5113;41.822;23.564;2023-04-12T10:05:58;6.10;;;4.67;;
10144;SDS011;5113;41.822;23.564;2023-04-12T10:09:05;10.60;;;5.63;;
10144;SDS011;5113;41.822;23.564;2023-04-12T10:12:12;8.27;;;6.20;;
10144;SDS011;5113;41.822;23.564;2023-04-12T10:15:19;10.43;;;5.63;;
10144;SDS011;5113;41.822;23.564;2023-04-12T10:18:25;8.27;;;5.93;;
10144;SDS011;5113;41.822;23.564;2023-04-12T10:21:34;4.53;;;4.10;;
10144;SDS011;5113;41.822;23.564;2023-04-12T10:24:41;7.03;;;3.60;;
10144;SDS011;5113;41.822;23.564;2023-04-12T10:27:48;4.23;;;3.93;;
10144;SDS011;5113;41.822;23.564;2023-04-12T10:30:55;4.17;;;3.87;;
10144;SDS011;5113;41.822;23.564;2023-04-12T10:34:02;4.27;;;3.87;;
10144;SDS011;5113;41.822;23.564;2023-04-12T10:37:09;6.27;;;4.17;;
10144;SDS011;5113;41.822;23.564;2023-04-12T10:40:17;5.50;;;3.43;;
10144;SDS011;5113;41.822;23.564;2023-04-12T10:43:25;4.30;;;3.90;;
10144;SDS011;5113;41.822;23.564;2023-04-12T10:46:51;6.70;;;5.13;;
10144;SDS011;5113;41.822;23.564;2023-04-12T10:50:18;4.13;;;3.70;;
10144;SDS011;5113;41.822;23.564;2023-04-12T10:53:29;4.40;;;3.70;;
10144;SDS011;5113;41.822;23.564;2023-04-12T10:56:36;9.40;;;4.03;;
10144;SDS011;5113;41.822;23.564;2023-04-12T10:59:50;7.47;;;4.57;;
10144;SDS011;5113;41.822;23.564;2023-04-12T11:03:05;5.27;;;3.93;;
10144;SDS011;5113;41.822;23.564;2023-04-12T11:06:16;8.27;;;5.00;;
10144;SDS011;5113;41.822;23.564;2023-04-12T11:09:37;2.80;;;2.70;;
10144;SDS011;5113;41.822;23.564;2023-04-12T11:12:47;8.07;;;5.13;;
10144;SDS011;5113;41.822;23.564;2023-04-12T11:15:54;3.60;;;3.30;;
10144;SDS011;5113;41.822;23.564;2023-04-12T11:19:02;5.53;;;4.03;;
10144;SDS011;5113;41.822;23.564;2023-04-12T11:22:09;9.37;;;4.80;;
10144;SDS011;5113;41.822;23.564;2023-04-12T11:25:18;6.27;;;4.70;;
10144;SDS011;5113;41.822;23.564;2023-04-12T11:28:25;7.50;;;6.07;;
10144;SDS011;5113;41.822;23.564;2023-04-12T11:31:37;11.23;;;5.27;;
10144;SDS011;5113;41.822;23.564;2023-04-12T11:34:43;7.47;;;4.50;;
10144;SDS011;5113;41.822;23.564;2023-04-12T11:37:50;4.83;;;4.13;;
10144;SDS011;5113;41.822;23.564;2023-04-12T11:40:58;5.20;;;4.33;;
10144;SDS011;5113;41.822;23.564;2023-04-12T11:44:05;9.57;;;5.87;;
10144;SDS011;5113;41.822;23.564;2023-04-12T11:47:13;31.03;;;13.43;;
10144;SDS011;5113;41.822;23.564;2023-04-12T11:50:27;17.83;;;9.30;;
10144;SDS011;5113;41.822;23.564;2023-04-12T11:53:36;9.80;;;5.77;;
10144;SDS011;5113;41.822;23.564;2023-04-12T11:56:43;4.33;;;3.43;;
10144;SDS011;5113;41.822;23.564;2023-04-12T11:59:50;3.73;;;2.87;;
10144;SDS011;5113;41.822;23.564;2023-04-12T12:02:57;7.33;;;5.13;;
10144;SDS011;5113;41.822;23.564;2023-04-12T12:06:11;10.43;;;6.30;;
10144;SDS011;5113;41.822;23.564;2023-04-12T12:09:19;12.47;;;7.93;;
10144;SDS011;5113;41.822;23.564;2023-04-12T12:12:27;13.77;;;8.67;;
10144;SDS011;5113;41.822;23.564;2023-04-12T12:15:34;12.63;;;9.30;;
10144;SDS011;5113;41.822;23.564;2023-04-12T12:18:40;11.57;;;7.43;;
10144;SDS011;5113;41.822;23.564;2023-04-12T12:21:47;13.40;;;10.37;;
10144;SDS011;5113;41.822;23.564;2023-04-12T12:24:54;15.30;;;10.27;;
10144;SDS011;5113;41.822;23.564;2023-04-12T12:28:02;20.33;;;10.87;;
10144;SDS011;5113;41.822;23.564;2023-04-12T12:31:10;14.07;;;9.70;;
10144;SDS011;5113;41.822;23.564;2023-04-12T12:34:19;20.40;;;12.00;;
10144;SDS011;5113;41.822;23.564;2023-04-12T12:37:26;21.27;;;13.80;;
10144;SDS011;5113;41.822;23.564;2023-04-12T12:40:32;12.97;;;7.73;;
10144;SDS011;5113;41.822;23.564;2023-04-12T12:43:44;4.90;;;4.40;;
10144;SDS011;5113;41.822;23.564;2023-04-12T12:46:51;4.30;;;3.13;;
10144;SDS011;5113;41.822;23.564;2023-04-12T12:50:13;3.53;;;3.27;;
10144;SDS011;5113;41.822;23.564;2023-04-12T12:53:20;3.13;;;2.83;;
10144;SDS011;5113;41.822;23.564;2023-04-12T12:56:28;2.67;;;2.47;;
10144;SDS011;5113;41.822;23.564;2023-04-12T12:59:35;6.27;;;2.93;;
10144;SDS011;5113;41.822;23.564;2023-04-12T13:02:41;20.23;;;11.97;;
10144;SDS011;5113;41.822;23.564;2023-04-12T13:05:49;14.63;;;9.77;;
10144;SDS011;5113;41.822;23.564;2023-04-12T13:08:55;27.40;;;11.13;;
10144;SDS011;5113;41.822;23.564;2023-04-12T13:12:02;19.57;;;10.30;;
10144;SDS011;5113;41.822;23.564;2023-04-12T13:15:10;12.93;;;6.53;;
10144;SDS011;5113;41.822;23.564;2023-04-12T13:18:27;5.53;;;4.37;;
10144;SDS011;5113;41.822;23.564;2023-04-12T13:21:33;6.93;;;4.07;;
10144;SDS011;5113;41.822;23.564;2023-04-12T13:24:40;6.13;;;5.50;;
10144;SDS011;5113;41.822;23.564;2023-04-12T13:27:47;9.53;;;6.50;;
10144;SDS011;5113;41.822;23.564;2023-04-12T13:30:55;11.47;;;6.83;;
10144;SDS011;5113;41.822;23.564;2023-04-12T13:34:01;15.40;;;8.63;;
10144;SDS011;5113;41.822;23.564;2023-04-12T13:37:07;14.53;;;8.60;;
10144;SDS011;5113;41.822;23.564;2023-04-12T13:40:14;10.63;;;6.53;;
10144;SDS011;5113;41.822;23.564;2023-04-12T13:43:20;24.83;;;13.70;;
10144;SDS011;5113;41.822;23.564;2023-04-12T13:46:27;9.03;;;6.80;;
10144;SDS011;5113;41.822;23.564;2023-04-12T13:49:33;9.60;;;6.33;;
10144;SDS011;5113;41.822;23.564;2023-04-12T13:52:40;14.97;;;8.80;;
10144;SDS011;5113;41.822;23.564;2023-04-12T13:55:46;24.77;;;12.37;;
10144;SDS011;5113;41.822;23.564;2023-04-12T13:58:54;6.17;;;4.90;;
10144;SDS011;5113;41.822;23.564;2023-04-12T14:02:04;5.23;;;4.03;;
10144;SDS011;5113;41.822;23.564;2023-04-12T14:05:11;3.90;;;3.60;;
10144;SDS011;5113;41.822;23.564;2023-04-12T14:08:17;7.40;;;4.43;;
10144;SDS011;5113;41.822;23.564;2023-04-12T14:11:23;3.90;;;3.50;;
10144;SDS011;5113;41.822;23.564;2023-04-12T14:14:30;5.10;;;3.57;;
10144;SDS011;5113;41.822;23.564;2023-04-12T14:17:37;5.43;;;3.30;;
10144;SDS011;5113;41.822;23.564;2023-04-12T14:20:44;15.77;;;6.27;;
10144;SDS011;5113;41.822;23.564;2023-04-12T14:23:55;5.60;;;4.27;;
10144;SDS011;5113;41.822;23.564;2023-04-12T14:27:02;11.23;;;6.83;;
10144;SDS011;5113;41.822;23.564;2023-04-12T14:30:09;5.20;;;3.40;;
10144;SDS011;5113;41.822;23.564;2023-04-12T14:33:16;5.53;;;3.40;;
10144;SDS011;5113;41.822;23.564;2023-04-12T14:36:23;4.40;;;3.60;;
10144;SDS011;5113;41.822;23.564;2023-04-12T14:39:30;7.20;;;4.50;;
10144;SDS011;5113;41.822;23.564;2023-04-12T14:42:38;5.47;;;3.93;;
10144;SDS011;5113;41.822;23.564;2023-04-12T14:45:44;14.77;;;8.80;;
10144;SDS011;5113;41.822;23.564;2023-04-12T14:48:51;7.97;;;5.63;;
10144;SDS011;5113;41.822;23.564;2023-04-12T14:51:58;9.07;;;6.10;;
10144;SDS011;5113;41.822;23.564;2023-04-12T14:55:04;11.07;;;6.80;;
10144;SDS011;5113;41.822;23.564;2023-04-12T14:58:12;8.10;;;5.53;;
10144;SDS011;5113;41.822;23.564;2023-04-12T15:01:18;5.23;;;4.33;;
10144;SDS011;5113;41.822;23.564;2023-04-12T15:04:26;15.43;;;10.40;;
10144;SDS011;5113;41.822;23.564;2023-04-12T15:07:33;11.37;;;7.43;;
10144;SDS011;5113;41.822;23.564;2023-04-12T15:10:40;5.97;;;4.50;;
10144;SDS011;5113;41.822;23.564;2023-04-12T15:13:46;9.73;;;5.00;;
10144;SDS011;5113;41.822;23.564;2023-04-12T15:16:55;6.00;;;3.73;;
10144;SDS011;5113;41.822;23.564;2023-04-12T15:20:04;8.57;;;6.10;;
10144;SDS011;5113;41.822;23.564;2023-04-12T15:23:14;19.97;;;8.67;;
10144;SDS011;5113;41.822;23.564;2023-04-12T15:26:21;5.50;;;4.17;;
10144;SDS011;5113;41.822;23.564;2023-04-12T15:29:27;7.90;;;6.27;;
10144;SDS011;5113;41.822;23.564;2023-04-12T15:32:34;6.57;;;5.07;;
10144;SDS011;5113;41.822;23.564;2023-04-12T15:35:46;6.40;;;5.63;;
10144;SDS011;5113;41.822;23.564;2023-04-12T15:38:53;4.70;;;4.10;;
10144;SDS011;5113;41.822;23.564;2023-04-12T15:41:59;4.73;;;3.83;;
10144;SDS011;5113;41.822;23.564;2023-04-12T15:45:06;16.70;;;7.43;;
10144;SDS011;5113;41.822;23.564;2023-04-12T15:48:12;9.23;;;6.10;;
10144;SDS011;5113;41.822;23.564;2023-04-12T15:51:20;15.67;;;6.83;;
10144;SDS011;5113;41.822;23.564;2023-04-12T15:54:27;9.63;;;6.60;;
10144;SDS011;5113;41.822;23.564;2023-04-12T15:57:33;21.73;;;12.23;;
10144;SDS011;5113;41.822;23.564;2023-04-12T16:00:40;11.90;;;7.90;;
10144;SDS011;5113;41.822;23.564;2023-04-12T16:03:47;11.87;;;7.47;;
10144;SDS011;5113;41.822;23.564;2023-04-12T16:06:56;15.10;;;8.63;;
10144;SDS011;5113;41.822;23.564;2023-04-12T16:10:10;15.93;;;7.77;;
10144;SDS011;5113;41.822;23.564;2023-04-12T16:13:17;5.70;;;4.07;;
10144;SDS011;5113;41.822;23.564;2023-04-12T16:16:24;11.50;;;7.07;;
10144;SDS011;5113;41.822;23.564;2023-04-12T16:19:34;13.17;;;7.57;;
10144;SDS011;5113;41.822;23.564;2023-04-12T16:22:41;10.13;;;6.13;;
10144;SDS011;5113;41.822;23.564;2023-04-12T16:25:48;11.40;;;7.57;;
10144;SDS011;5113;41.822;23.564;2023-04-12T16:28:55;9.03;;;8.03;;
10144;SDS011;5113;41.822;23.564;2023-04-12T16:32:05;6.43;;;5.80;;
10144;SDS011;5113;41.822;23.564;2023-04-12T16:35:12;7.90;;;4.90;;
10144;SDS011;5113;41.822;23.564;2023-04-12T16:38:22;5.33;;;3.90;;
10144;SDS011;5113;41.822;23.564;2023-04-12T16:41:30;10.20;;;7.40;;
10144;SDS011;5113;41.822;23.564;2023-04-12T16:44:36;6.87;;;5.57;;
10144;SDS011;5113;41.822;23.564;2023-04-12T16:47:44;12.93;;;8.10;;
10144;SDS011;5113;41.822;23.564;2023-04-12T16:50:51;12.87;;;7.43;;
10144;SDS011;5113;41.822;23.564;2023-04-12T16:53:58;16.80;;;9.87;;
10144;SDS011;5113;41.822;23.564;2023-04-12T16:57:04;17.30;;;10.70;;
10144;SDS011;5113;41.822;23.564;2023-04-12T17:00:11;18.03;;;11.30;;
10144;SDS011;5113;41.822;23.564;2023-04-12T17:03:23;16.60;;;9.83;;
10144;SDS011;5113;41.822;23.564;2023-04-12T17:06:29;18.23;;;9.20;;
10144;SDS011;5113;41.822;23.564;2023-04-12T17:09:39;13.70;;;9.17;;
10144;SDS011;5113;41.822;23.564;2023-04-12T17:12:46;16.30;;;9.77;;
10144;SDS011;5113;41.822;23.564;2023-04-12T17:15:58;17.83;;;9.80;;
10144;SDS011;5113;41.822;23.564;2023-04-12T17:19:05;13.63;;;8.70;;
10144;SDS011;5113;41.822;23.564;2023-04-12T17:22:14;12.77;;;8.87;;
10144;SDS011;5113;41.822;23.564;2023-04-12T17:25:24;10.63;;;6.50;;
10144;SDS011;5113;41.822;23.564;2023-04-12T17:28:32;8.93;;;7.63;;
10144;SDS011;5113;41.822;23.564;2023-04-12T17:31:42;11.47;;;7.43;;
10144;SDS011;5113;41.822;23.564;2023-04-12T17:34:49;18.70;;;9.67;;
10144;SDS011;5113;41.822;23.564;2023-04-12T17:37:58;14.47;;;9.03;;
10144;SDS011;5113;41.822;23.564;2023-04-12T17:41:05;13.03;;;8.30;;
10144;SDS011;5113;41.822;23.564;2023-04-12T17:44:12;13.93;;;8.57;;
10144;SDS011;5113;41.822;23.564;2023-04-12T17:47:18;14.40;;;8.10;;
10144;SDS011;5113;41.822;23.564;2023-04-12T17:50:26;10.10;;;6.47;;
10144;SDS011;5113;41.822;23.564;2023-04-12T17:53:35;14.27;;;6.73;;
10144;SDS011;5113;41.822;23.564;2023-04-12T17:56:43;8.23;;;5.80;;
10144;SDS011;5113;41.822;23.564;2023-04-12T17:59:48;11.27;;;7.07;;
10144;SDS011;5113;41.822;23.564;2023-04-12T18:02:55;9.17;;;6.30;;
10144;SDS011;5113;41.822;23.564;2023-04-12T18:06:02;10.57;;;6.10;;
10144;SDS011;5113;41.822;23.564;2023-04-12T18:09:10;10.43;;;6.37;;
10144;SDS011;5113;41.822;23.564;2023-04-12T18:12:19;16.20;;;8.00;;
10144;SDS011;5113;41.822;23.564;2023-04-12T18:15:25;17.07;;;8.10;;
10144;SDS011;5113;41.822;23.564;2023-04-12T18:18:32;17.83;;;9.67;;
10144;SDS011;5113;41.822;23.564;2023-04-12T18:21:39;18.93;;;10.33;;
10144;SDS011;5113;41.822;23.564;2023-04-12T18:24:45;25.13;;;12.80;;
10144;SDS011;5113;41.822;23.564;2023-04-12T18:27:53;22.27;;;12.17;;
10144;SDS011;5113;41.822;23.564;2023-04-12T18:31:00;20.63;;;10.10;;
10144;SDS011;5113;41.822;23.564;2023-04-12T18:34:06;24.63;;;9.80;;
10144;SDS011;5113;41.822;23.564;2023-04-12T18:37:13;16.27;;;9.77;;
10144;SDS011;5113;41.822;23.564;2023-04-12T18:40:19;9.63;;;6.77;;
10144;SDS011;5113;41.822;23.564;2023-04-12T18:43:28;11.13;;;7.47;;